Brule, Nebraska
Current Conditions -  °F | °C
As of 10:55 PM on Thursday 30 Oct 2014 (Local Time) from KOGA Reporting Station
Clear Clear  
Wind Chill: 32°   Ceiling: Unl
Heat Index: 36°   Visibility: 10mi
Dew Point: 31°   Wind: 5mph
Humidity: 83%   Direction: 60°ENE
Pressure: 30.44"   Gusts: NA
Location:  41.09°N, 101.89°W
Report Text: KOGA 310455Z AUTO 06004KT 10SM CLR 02/00 A3044 RMK AO2 T00231004
Loading
Personal Weather Stations






























Interactive Weather Map
Tropical Storm Tracking
New forecast layout! Learn more

10-Day Weather Forecast

Advertisements
Track Severe Weather on mobile